sensor_id;sensor_type;location;lat;lon;timestamp;P1;durP1;ratioP1;P2;durP2;ratioP2
21360;SDS011;10839;43.206;23.550;2023-03-23T00:01:01;21.02;;;13.90;;
21360;SDS011;10839;43.206;23.550;2023-03-23T00:03:28;23.17;;;14.23;;
21360;SDS011;10839;43.206;23.550;2023-03-23T00:06:00;24.55;;;13.73;;
21360;SDS011;10839;43.206;23.550;2023-03-23T00:08:32;21.13;;;12.82;;
21360;SDS011;10839;43.206;23.550;2023-03-23T00:11:06;24.08;;;13.23;;
21360;SDS011;10839;43.206;23.550;2023-03-23T00:13:33;19.52;;;11.90;;
21360;SDS011;10839;43.206;23.550;2023-03-23T00:15:59;18.23;;;11.95;;
21360;SDS011;10839;43.206;23.550;2023-03-23T00:18:25;21.73;;;12.50;;
21360;SDS011;10839;43.206;23.550;2023-03-23T00:20:55;18.95;;;12.13;;
21360;SDS011;10839;43.206;23.550;2023-03-23T00:23:23;19.80;;;12.20;;
21360;SDS011;10839;43.206;23.550;2023-03-23T00:25:54;21.05;;;12.30;;
21360;SDS011;10839;43.206;23.550;2023-03-23T00:31:04;20.45;;;11.38;;
21360;SDS011;10839;43.206;23.550;2023-03-23T00:33:35;18.42;;;10.75;;
21360;SDS011;10839;43.206;23.550;2023-03-23T00:38:35;16.77;;;10.80;;
21360;SDS011;10839;43.206;23.550;2023-03-23T00:41:03;15.95;;;10.48;;
21360;SDS011;10839;43.206;23.550;2023-03-23T00:43:29;16.73;;;10.73;;
21360;SDS011;10839;43.206;23.550;2023-03-23T00:45:56;19.60;;;11.27;;
21360;SDS011;10839;43.206;23.550;2023-03-23T00:48:26;18.05;;;10.35;;
21360;SDS011;10839;43.206;23.550;2023-03-23T00:50:54;17.77;;;10.52;;
21360;SDS011;10839;43.206;23.550;2023-03-23T00:53:21;19.45;;;11.13;;
21360;SDS011;10839;43.206;23.550;2023-03-23T00:55:48;19.15;;;11.57;;
21360;SDS011;10839;43.206;23.550;2023-03-23T00:58:15;19.08;;;11.93;;
21360;SDS011;10839;43.206;23.550;2023-03-23T01:00:41;18.50;;;11.88;;
21360;SDS011;10839;43.206;23.550;2023-03-23T01:03:08;18.42;;;11.48;;
21360;SDS011;10839;43.206;23.550;2023-03-23T01:05:38;23.45;;;12.48;;
21360;SDS011;10839;43.206;23.550;2023-03-23T01:08:05;21.25;;;12.15;;
21360;SDS011;10839;43.206;23.550;2023-03-23T01:10:32;21.67;;;12.43;;
21360;SDS011;10839;43.206;23.550;2023-03-23T01:13:01;20.15;;;12.27;;
21360;SDS011;10839;43.206;23.550;2023-03-23T01:15:28;19.80;;;11.90;;
21360;SDS011;10839;43.206;23.550;2023-03-23T01:17:55;24.90;;;13.88;;
21360;SDS011;10839;43.206;23.550;2023-03-23T01:20:22;29.42;;;17.65;;
21360;SDS011;10839;43.206;23.550;2023-03-23T01:22:49;30.00;;;17.77;;
21360;SDS011;10839;43.206;23.550;2023-03-23T01:25:16;30.63;;;17.10;;
21360;SDS011;10839;43.206;23.550;2023-03-23T01:27:42;29.10;;;18.10;;
21360;SDS011;10839;43.206;23.550;2023-03-23T01:30:09;32.40;;;18.65;;
21360;SDS011;10839;43.206;23.550;2023-03-23T01:32:37;35.30;;;20.23;;
21360;SDS011;10839;43.206;23.550;2023-03-23T01:35:04;32.85;;;20.70;;
21360;SDS011;10839;43.206;23.550;2023-03-23T01:37:31;36.30;;;20.70;;
21360;SDS011;10839;43.206;23.550;2023-03-23T01:39:58;36.58;;;20.42;;
21360;SDS011;10839;43.206;23.550;2023-03-23T01:42:31;36.10;;;19.10;;
21360;SDS011;10839;43.206;23.550;2023-03-23T01:47:47;28.35;;;16.98;;
21360;SDS011;10839;43.206;23.550;2023-03-23T01:50:18;26.35;;;15.70;;
21360;SDS011;10839;43.206;23.550;2023-03-23T01:52:48;26.65;;;15.30;;
21360;SDS011;10839;43.206;23.550;2023-03-23T01:55:17;34.13;;;18.70;;
21360;SDS011;10839;43.206;23.550;2023-03-23T01:57:44;36.78;;;21.00;;
21360;SDS011;10839;43.206;23.550;2023-03-23T02:00:13;31.77;;;17.33;;
21360;SDS011;10839;43.206;23.550;2023-03-23T02:02:47;30.77;;;17.35;;
21360;SDS011;10839;43.206;23.550;2023-03-23T02:05:24;46.10;;;22.90;;
21360;SDS011;10839;43.206;23.550;2023-03-23T02:07:59;40.47;;;23.77;;
21360;SDS011;10839;43.206;23.550;2023-03-23T02:10:32;43.95;;;23.65;;
21360;SDS011;10839;43.206;23.550;2023-03-23T02:13:01;41.85;;;23.23;;
21360;SDS011;10839;43.206;23.550;2023-03-23T02:15:33;41.30;;;22.25;;
21360;SDS011;10839;43.206;23.550;2023-03-23T02:21:30;38.47;;;22.33;;
21360;SDS011;10839;43.206;23.550;2023-03-23T02:26:41;40.78;;;21.90;;
21360;SDS011;10839;43.206;23.550;2023-03-23T02:32:16;33.97;;;20.10;;
21360;SDS011;10839;43.206;23.550;2023-03-23T02:34:56;34.40;;;19.73;;
21360;SDS011;10839;43.206;23.550;2023-03-23T02:37:31;34.92;;;20.88;;
21360;SDS011;10839;43.206;23.550;2023-03-23T02:40:25;35.92;;;20.20;;
21360;SDS011;10839;43.206;23.550;2023-03-23T02:42:54;36.85;;;21.00;;
21360;SDS011;10839;43.206;23.550;2023-03-23T02:45:22;42.22;;;22.83;;
21360;SDS011;10839;43.206;23.550;2023-03-23T02:47:53;39.88;;;23.30;;
21360;SDS011;10839;43.206;23.550;2023-03-23T02:50:21;41.22;;;23.25;;
21360;SDS011;10839;43.206;23.550;2023-03-23T02:52:49;40.47;;;23.10;;
21360;SDS011;10839;43.206;23.550;2023-03-23T02:55:18;38.90;;;22.48;;
21360;SDS011;10839;43.206;23.550;2023-03-23T02:57:52;38.47;;;22.05;;
21360;SDS011;10839;43.206;23.550;2023-03-23T03:00:18;39.20;;;21.92;;
21360;SDS011;10839;43.206;23.550;2023-03-23T03:02:49;39.15;;;22.55;;
21360;SDS011;10839;43.206;23.550;2023-03-23T03:08:18;32.50;;;17.80;;
21360;SDS011;10839;43.206;23.550;2023-03-23T03:11:08;24.08;;;14.48;;
21360;SDS011;10839;43.206;23.550;2023-03-23T03:13:51;16.10;;;11.00;;
21360;SDS011;10839;43.206;23.550;2023-03-23T03:19:10;16.83;;;10.50;;
21360;SDS011;10839;43.206;23.550;2023-03-23T03:21:45;15.60;;;9.65;;
21360;SDS011;10839;43.206;23.550;2023-03-23T03:24:18;23.73;;;14.00;;
21360;SDS011;10839;43.206;23.550;2023-03-23T03:26:50;22.35;;;13.73;;
21360;SDS011;10839;43.206;23.550;2023-03-23T03:29:41;30.92;;;17.38;;
21360;SDS011;10839;43.206;23.550;2023-03-23T03:32:15;29.20;;;16.85;;
21360;SDS011;10839;43.206;23.550;2023-03-23T03:34:45;30.05;;;18.38;;
21360;SDS011;10839;43.206;23.550;2023-03-23T03:37:12;29.60;;;18.25;;
21360;SDS011;10839;43.206;23.550;2023-03-23T03:39:39;31.42;;;19.27;;
21360;SDS011;10839;43.206;23.550;2023-03-23T03:42:06;33.28;;;19.42;;
21360;SDS011;10839;43.206;23.550;2023-03-23T03:44:33;33.25;;;19.92;;
21360;SDS011;10839;43.206;23.550;2023-03-23T03:46:59;35.88;;;21.70;;
21360;SDS011;10839;43.206;23.550;2023-03-23T03:49:25;36.88;;;21.60;;
21360;SDS011;10839;43.206;23.550;2023-03-23T03:51:53;37.75;;;22.58;;
21360;SDS011;10839;43.206;23.550;2023-03-23T03:54:29;37.60;;;21.20;;
21360;SDS011;10839;43.206;23.550;2023-03-23T03:56:56;35.83;;;21.02;;
21360;SDS011;10839;43.206;23.550;2023-03-23T03:59:38;35.95;;;21.42;;
21360;SDS011;10839;43.206;23.550;2023-03-23T04:02:22;33.83;;;20.63;;
21360;SDS011;10839;43.206;23.550;2023-03-23T04:04:51;36.17;;;20.35;;
21360;SDS011;10839;43.206;23.550;2023-03-23T04:07:18;33.83;;;20.25;;
21360;SDS011;10839;43.206;23.550;2023-03-23T04:09:48;33.78;;;20.75;;
21360;SDS011;10839;43.206;23.550;2023-03-23T04:12:18;34.03;;;20.75;;
21360;SDS011;10839;43.206;23.550;2023-03-23T04:14:57;32.08;;;19.38;;
21360;SDS011;10839;43.206;23.550;2023-03-23T04:17:31;33.47;;;21.02;;
21360;SDS011;10839;43.206;23.550;2023-03-23T04:19:57;35.08;;;20.42;;
21360;SDS011;10839;43.206;23.550;2023-03-23T04:22:24;34.22;;;19.95;;
21360;SDS011;10839;43.206;23.550;2023-03-23T04:24:56;34.65;;;20.50;;
21360;SDS011;10839;43.206;23.550;2023-03-23T04:27:24;37.92;;;21.25;;
21360;SDS011;10839;43.206;23.550;2023-03-23T04:29:55;35.15;;;20.25;;
21360;SDS011;10839;43.206;23.550;2023-03-23T04:32:41;36.47;;;21.63;;
21360;SDS011;10839;43.206;23.550;2023-03-23T04:35:09;39.17;;;21.55;;
21360;SDS011;10839;43.206;23.550;2023-03-23T04:37:41;30.35;;;16.58;;
21360;SDS011;10839;43.206;23.550;2023-03-23T04:40:10;36.45;;;21.23;;
21360;SDS011;10839;43.206;23.550;2023-03-23T04:42:45;37.67;;;21.00;;
21360;SDS011;10839;43.206;23.550;2023-03-23T04:45:44;36.10;;;20.00;;
21360;SDS011;10839;43.206;23.550;2023-03-23T04:48:13;33.47;;;20.58;;
21360;SDS011;10839;43.206;23.550;2023-03-23T04:50:55;43.97;;;23.40;;
21360;SDS011;10839;43.206;23.550;2023-03-23T04:53:27;34.33;;;20.60;;
21360;SDS011;10839;43.206;23.550;2023-03-23T04:55:54;32.67;;;19.13;;
21360;SDS011;10839;43.206;23.550;2023-03-23T04:58:20;31.60;;;20.33;;
21360;SDS011;10839;43.206;23.550;2023-03-23T05:01:15;33.42;;;20.00;;
21360;SDS011;10839;43.206;23.550;2023-03-23T05:04:03;32.25;;;20.20;;
21360;SDS011;10839;43.206;23.550;2023-03-23T05:06:30;32.60;;;21.05;;
21360;SDS011;10839;43.206;23.550;2023-03-23T05:09:01;44.03;;;24.55;;
21360;SDS011;10839;43.206;23.550;2023-03-23T05:11:29;36.40;;;21.45;;
21360;SDS011;10839;43.206;23.550;2023-03-23T05:13:55;42.72;;;24.52;;
21360;SDS011;10839;43.206;23.550;2023-03-23T05:16:22;36.90;;;21.95;;
21360;SDS011;10839;43.206;23.550;2023-03-23T05:18:47;40.10;;;22.33;;
21360;SDS011;10839;43.206;23.550;2023-03-23T05:21:16;37.78;;;22.30;;
21360;SDS011;10839;43.206;23.550;2023-03-23T05:24:01;34.83;;;22.38;;
21360;SDS011;10839;43.206;23.550;2023-03-23T05:26:28;39.97;;;23.20;;
21360;SDS011;10839;43.206;23.550;2023-03-23T05:29:00;31.15;;;20.02;;
21360;SDS011;10839;43.206;23.550;2023-03-23T05:31:40;38.63;;;20.40;;
21360;SDS011;10839;43.206;23.550;2023-03-23T05:34:06;31.13;;;19.27;;
21360;SDS011;10839;43.206;23.550;2023-03-23T05:36:44;30.40;;;18.88;;
21360;SDS011;10839;43.206;23.550;2023-03-23T05:39:14;26.95;;;17.88;;
21360;SDS011;10839;43.206;23.550;2023-03-23T05:41:56;26.05;;;16.95;;
21360;SDS011;10839;43.206;23.550;2023-03-23T05:44:26;31.15;;;18.42;;
21360;SDS011;10839;43.206;23.550;2023-03-23T05:46:55;29.00;;;18.27;;
21360;SDS011;10839;43.206;23.550;2023-03-23T05:49:21;28.70;;;18.70;;
21360;SDS011;10839;43.206;23.550;2023-03-23T05:51:47;28.83;;;19.08;;
21360;SDS011;10839;43.206;23.550;2023-03-23T05:54:16;33.30;;;19.73;;
21360;SDS011;10839;43.206;23.550;2023-03-23T05:56:44;37.08;;;21.45;;
21360;SDS011;10839;43.206;23.550;2023-03-23T05:59:19;37.40;;;22.25;;
21360;SDS011;10839;43.206;23.550;2023-03-23T06:01:50;42.35;;;24.10;;
21360;SDS011;10839;43.206;23.550;2023-03-23T06:04:20;39.85;;;22.63;;
21360;SDS011;10839;43.206;23.550;2023-03-23T06:07:05;36.55;;;23.08;;
21360;SDS011;10839;43.206;23.550;2023-03-23T06:09:32;33.13;;;21.75;;
21360;SDS011;10839;43.206;23.550;2023-03-23T06:12:29;35.47;;;21.13;;
21360;SDS011;10839;43.206;23.550;2023-03-23T06:15:12;31.27;;;20.83;;
21360;SDS011;10839;43.206;23.550;2023-03-23T06:18:01;32.03;;;18.83;;
21360;SDS011;10839;43.206;23.550;2023-03-23T06:20:36;30.65;;;19.75;;
21360;SDS011;10839;43.206;23.550;2023-03-23T06:23:14;36.55;;;19.42;;
21360;SDS011;10839;43.206;23.550;2023-03-23T06:25:41;36.50;;;20.45;;
21360;SDS011;10839;43.206;23.550;2023-03-23T06:28:09;28.88;;;17.50;;
21360;SDS011;10839;43.206;23.550;2023-03-23T06:30:40;27.35;;;17.08;;
21360;SDS011;10839;43.206;23.550;2023-03-23T06:33:07;24.52;;;15.07;;
21360;SDS011;10839;43.206;23.550;2023-03-23T06:36:10;25.45;;;15.25;;
21360;SDS011;10839;43.206;23.550;2023-03-23T06:38:49;24.40;;;16.27;;
21360;SDS011;10839;43.206;23.550;2023-03-23T06:41:20;25.00;;;16.33;;
21360;SDS011;10839;43.206;23.550;2023-03-23T06:43:47;27.98;;;15.43;;
21360;SDS011;10839;43.206;23.550;2023-03-23T06:46:17;25.38;;;15.68;;
21360;SDS011;10839;43.206;23.550;2023-03-23T06:49:06;31.50;;;20.40;;
21360;SDS011;10839;43.206;23.550;2023-03-23T06:51:45;24.30;;;15.40;;
21360;SDS011;10839;43.206;23.550;2023-03-23T06:54:11;28.88;;;16.60;;
21360;SDS011;10839;43.206;23.550;2023-03-23T06:56:39;26.42;;;16.10;;
21360;SDS011;10839;43.206;23.550;2023-03-23T06:59:07;28.10;;;17.83;;
21360;SDS011;10839;43.206;23.550;2023-03-23T07:01:34;28.85;;;16.90;;
21360;SDS011;10839;43.206;23.550;2023-03-23T07:04:01;32.10;;;21.67;;
21360;SDS011;10839;43.206;23.550;2023-03-23T07:06:53;30.13;;;17.70;;
21360;SDS011;10839;43.206;23.550;2023-03-23T07:09:19;28.02;;;17.75;;
21360;SDS011;10839;43.206;23.550;2023-03-23T07:11:47;30.90;;;21.02;;
21360;SDS011;10839;43.206;23.550;2023-03-23T07:14:26;31.25;;;18.83;;
21360;SDS011;10839;43.206;23.550;2023-03-23T07:16:52;29.60;;;18.75;;
21360;SDS011;10839;43.206;23.550;2023-03-23T07:19:19;40.10;;;22.63;;
21360;SDS011;10839;43.206;23.550;2023-03-23T07:21:46;26.13;;;17.55;;
21360;SDS011;10839;43.206;23.550;2023-03-23T07:24:12;24.20;;;17.58;;
21360;SDS011;10839;43.206;23.550;2023-03-23T07:26:58;25.48;;;19.02;;
21360;SDS011;10839;43.206;23.550;2023-03-23T07:29:26;21.58;;;17.13;;
21360;SDS011;10839;43.206;23.550;2023-03-23T07:32:01;23.38;;;15.25;;
21360;SDS011;10839;43.206;23.550;2023-03-23T07:34:28;19.20;;;14.07;;
21360;SDS011;10839;43.206;23.550;2023-03-23T07:37:03;21.33;;;15.00;;
21360;SDS011;10839;43.206;23.550;2023-03-23T07:39:33;22.02;;;15.27;;
21360;SDS011;10839;43.206;23.550;2023-03-23T07:42:00;27.08;;;18.73;;
21360;SDS011;10839;43.206;23.550;2023-03-23T07:44:40;21.27;;;15.30;;
21360;SDS011;10839;43.206;23.550;2023-03-23T07:47:09;12.60;;;10.68;;
21360;SDS011;10839;43.206;23.550;2023-03-23T07:49:35;15.82;;;10.60;;
21360;SDS011;10839;43.206;23.550;2023-03-23T07:52:15;16.38;;;11.10;;
21360;SDS011;10839;43.206;23.550;2023-03-23T07:54:41;14.00;;;11.27;;
21360;SDS011;10839;43.206;23.550;2023-03-23T07:57:16;13.38;;;10.48;;
21360;SDS011;10839;43.206;23.550;2023-03-23T07:59:48;14.13;;;10.80;;
21360;SDS011;10839;43.206;23.550;2023-03-23T08:02:14;11.27;;;9.55;;
21360;SDS011;10839;43.206;23.550;2023-03-23T08:04:43;12.13;;;9.38;;
21360;SDS011;10839;43.206;23.550;2023-03-23T08:07:28;14.98;;;11.18;;
21360;SDS011;10839;43.206;23.550;2023-03-23T08:10:09;13.40;;;10.18;;
21360;SDS011;10839;43.206;23.550;2023-03-23T08:12:54;16.08;;;11.75;;
21360;SDS011;10839;43.206;23.550;2023-03-23T08:15:30;15.40;;;10.98;;
21360;SDS011;10839;43.206;23.550;2023-03-23T08:18:15;14.90;;;10.98;;
21360;SDS011;10839;43.206;23.550;2023-03-23T08:21:20;17.38;;;11.10;;
21360;SDS011;10839;43.206;23.550;2023-03-23T08:24:05;14.32;;;10.63;;
21360;SDS011;10839;43.206;23.550;2023-03-23T08:26:54;16.80;;;10.98;;
21360;SDS011;10839;43.206;23.550;2023-03-23T08:29:45;18.67;;;11.55;;
21360;SDS011;10839;43.206;23.550;2023-03-23T08:32:33;16.67;;;11.13;;
21360;SDS011;10839;43.206;23.550;2023-03-23T08:35:10;20.40;;;12.55;;
21360;SDS011;10839;43.206;23.550;2023-03-23T08:38:17;16.58;;;11.88;;
21360;SDS011;10839;43.206;23.550;2023-03-23T08:40:56;18.92;;;12.57;;
21360;SDS011;10839;43.206;23.550;2023-03-23T08:43:47;19.27;;;12.10;;
21360;SDS011;10839;43.206;23.550;2023-03-23T08:46:16;18.60;;;12.50;;
21360;SDS011;10839;43.206;23.550;2023-03-23T08:49:15;22.30;;;14.30;;
21360;SDS011;10839;43.206;23.550;2023-03-23T08:52:02;19.77;;;13.60;;
21360;SDS011;10839;43.206;23.550;2023-03-23T08:54:51;20.52;;;12.70;;
21360;SDS011;10839;43.206;23.550;2023-03-23T08:57:37;17.48;;;11.23;;
21360;SDS011;10839;43.206;23.550;2023-03-23T09:00:37;19.45;;;11.70;;
21360;SDS011;10839;43.206;23.550;2023-03-23T09:03:24;15.13;;;11.00;;
21360;SDS011;10839;43.206;23.550;2023-03-23T09:06:05;14.73;;;11.45;;
21360;SDS011;10839;43.206;23.550;2023-03-23T09:08:37;17.60;;;11.93;;
21360;SDS011;10839;43.206;23.550;2023-03-23T09:11:03;17.92;;;12.07;;
21360;SDS011;10839;43.206;23.550;2023-03-23T09:13:32;17.73;;;12.85;;
21360;SDS011;10839;43.206;23.550;2023-03-23T09:15:59;14.55;;;10.13;;
21360;SDS011;10839;43.206;23.550;2023-03-23T09:18:25;14.45;;;10.68;;
21360;SDS011;10839;43.206;23.550;2023-03-23T09:20:52;15.95;;;10.38;;
21360;SDS011;10839;43.206;23.550;2023-03-23T09:23:18;14.27;;;10.27;;
21360;SDS011;10839;43.206;23.550;2023-03-23T09:25:46;12.60;;;9.48;;
21360;SDS011;10839;43.206;23.550;2023-03-23T09:28:14;13.48;;;9.38;;
21360;SDS011;10839;43.206;23.550;2023-03-23T09:30:40;13.95;;;9.93;;
21360;SDS011;10839;43.206;23.550;2023-03-23T09:33:08;17.90;;;10.07;;
21360;SDS011;10839;43.206;23.550;2023-03-23T09:35:34;12.15;;;9.82;;
21360;SDS011;10839;43.206;23.550;2023-03-23T09:38:04;16.73;;;9.85;;
21360;SDS011;10839;43.206;23.550;2023-03-23T09:43:19;14.82;;;9.88;;
21360;SDS011;10839;43.206;23.550;2023-03-23T09:45:57;14.07;;;9.30;;
21360;SDS011;10839;43.206;23.550;2023-03-23T09:53:36;14.93;;;11.57;;
21360;SDS011;10839;43.206;23.550;2023-03-23T09:56:10;12.05;;;9.45;;
21360;SDS011;10839;43.206;23.550;2023-03-23T09:58:45;15.15;;;10.85;;
21360;SDS011;10839;43.206;23.550;2023-03-23T10:01:33;13.57;;;11.15;;
21360;SDS011;10839;43.206;23.550;2023-03-23T10:04:09;16.88;;;11.40;;
21360;SDS011;10839;43.206;23.550;2023-03-23T10:06:47;13.55;;;10.02;;
21360;SDS011;10839;43.206;23.550;2023-03-23T10:09:14;22.63;;;10.07;;
21360;SDS011;10839;43.206;23.550;2023-03-23T10:11:56;11.77;;;8.68;;
21360;SDS011;10839;43.206;23.550;2023-03-23T10:17:20;11.27;;;8.25;;
21360;SDS011;10839;43.206;23.550;2023-03-23T10:22:29;12.20;;;9.63;;
21360;SDS011;10839;43.206;23.550;2023-03-23T10:27:38;10.70;;;6.75;;
21360;SDS011;10839;43.206;23.550;2023-03-23T10:30:19;8.38;;;6.20;;
21360;SDS011;10839;43.206;23.550;2023-03-23T10:32:53;9.73;;;7.40;;
21360;SDS011;10839;43.206;23.550;2023-03-23T10:35:33;10.52;;;7.63;;
21360;SDS011;10839;43.206;23.550;2023-03-23T10:38:15;9.80;;;8.10;;
21360;SDS011;10839;43.206;23.550;2023-03-23T10:40:54;10.60;;;8.68;;
21360;SDS011;10839;43.206;23.550;2023-03-23T10:43:23;27.70;;;18.50;;
21360;SDS011;10839;43.206;23.550;2023-03-23T10:46:10;24.70;;;18.77;;
21360;SDS011;10839;43.206;23.550;2023-03-23T10:48:45;13.15;;;10.00;;
21360;SDS011;10839;43.206;23.550;2023-03-23T10:51:13;11.98;;;8.45;;
21360;SDS011;10839;43.206;23.550;2023-03-23T10:53:49;9.80;;;7.75;;
21360;SDS011;10839;43.206;23.550;2023-03-23T10:56:23;11.70;;;8.05;;
21360;SDS011;10839;43.206;23.550;2023-03-23T10:58:52;8.30;;;7.10;;
21360;SDS011;10839;43.206;23.550;2023-03-23T11:01:27;12.10;;;7.43;;
21360;SDS011;10839;43.206;23.550;2023-03-23T11:03:56;12.63;;;7.75;;
21360;SDS011;10839;43.206;23.550;2023-03-23T11:06:26;40.25;;;22.52;;
21360;SDS011;10839;43.206;23.550;2023-03-23T11:09:00;16.80;;;11.15;;
21360;SDS011;10839;43.206;23.550;2023-03-23T11:11:40;10.48;;;7.75;;
21360;SDS011;10839;43.206;23.550;2023-03-23T11:14:25;13.00;;;8.40;;
21360;SDS011;10839;43.206;23.550;2023-03-23T11:16:59;9.63;;;8.20;;
21360;SDS011;10839;43.206;23.550;2023-03-23T11:19:28;10.68;;;7.82;;
21360;SDS011;10839;43.206;23.550;2023-03-23T11:22:06;11.23;;;8.30;;
21360;SDS011;10839;43.206;23.550;2023-03-23T11:24:41;10.57;;;8.40;;
21360;SDS011;10839;43.206;23.550;2023-03-23T11:27:10;11.32;;;8.43;;
21360;SDS011;10839;43.206;23.550;2023-03-23T11:29:42;9.82;;;7.78;;
21360;SDS011;10839;43.206;23.550;2023-03-23T11:32:15;12.90;;;8.63;;
21360;SDS011;10839;43.206;23.550;2023-03-23T11:34:47;12.73;;;8.32;;
21360;SDS011;10839;43.206;23.550;2023-03-23T11:39:55;15.38;;;8.70;;
21360;SDS011;10839;43.206;23.550;2023-03-23T11:45:22;10.13;;;8.10;;
21360;SDS011;10839;43.206;23.550;2023-03-23T11:58:11;9.43;;;7.53;;
21360;SDS011;10839;43.206;23.550;2023-03-23T12:00:41;12.07;;;7.97;;
21360;SDS011;10839;43.206;23.550;2023-03-23T12:03:13;9.95;;;8.32;;
21360;SDS011;10839;43.206;23.550;2023-03-23T12:11:57;11.07;;;7.82;;
21360;SDS011;10839;43.206;23.550;2023-03-23T12:14:58;9.95;;;7.68;;
21360;SDS011;10839;43.206;23.550;2023-03-23T12:23:24;10.68;;;8.05;;
21360;SDS011;10839;43.206;23.550;2023-03-23T12:26:09;11.57;;;8.30;;
21360;SDS011;10839;43.206;23.550;2023-03-23T12:31:20;9.73;;;6.88;;
21360;SDS011;10839;43.206;23.550;2023-03-23T12:33:59;9.43;;;6.43;;
21360;SDS011;10839;43.206;23.550;2023-03-23T12:37:19;13.05;;;6.80;;
21360;SDS011;10839;43.206;23.550;2023-03-23T12:45:16;16.85;;;11.82;;
21360;SDS011;10839;43.206;23.550;2023-03-23T12:47:58;16.70;;;11.38;;
21360;SDS011;10839;43.206;23.550;2023-03-23T12:50:38;12.60;;;8.98;;
21360;SDS011;10839;43.206;23.550;2023-03-23T12:53:13;10.93;;;8.63;;
21360;SDS011;10839;43.206;23.550;2023-03-23T12:55:48;22.33;;;12.60;;
21360;SDS011;10839;43.206;23.550;2023-03-23T12:58:19;25.88;;;16.88;;
21360;SDS011;10839;43.206;23.550;2023-03-23T13:00:57;12.25;;;8.75;;
21360;SDS011;10839;43.206;23.550;2023-03-23T13:06:35;16.15;;;8.88;;
21360;SDS011;10839;43.206;23.550;2023-03-23T13:09:10;12.85;;;9.45;;
21360;SDS011;10839;43.206;23.550;2023-03-23T13:11:38;11.10;;;8.27;;
21360;SDS011;10839;43.206;23.550;2023-03-23T13:14:21;12.00;;;8.25;;
21360;SDS011;10839;43.206;23.550;2023-03-23T13:24:52;15.15;;;8.23;;
21360;SDS011;10839;43.206;23.550;2023-03-23T13:27:25;11.68;;;8.50;;
21360;SDS011;10839;43.206;23.550;2023-03-23T13:29:54;13.07;;;8.68;;
21360;SDS011;10839;43.206;23.550;2023-03-23T13:32:21;11.30;;;8.68;;
21360;SDS011;10839;43.206;23.550;2023-03-23T13:34:55;13.45;;;8.93;;
21360;SDS011;10839;43.206;23.550;2023-03-23T13:37:22;14.75;;;9.30;;
21360;SDS011;10839;43.206;23.550;2023-03-23T13:42:22;14.13;;;9.45;;
21360;SDS011;10839;43.206;23.550;2023-03-23T13:49:54;13.30;;;9.65;;
21360;SDS011;10839;43.206;23.550;2023-03-23T13:57:56;13.40;;;8.73;;
21360;SDS011;10839;43.206;23.550;2023-03-23T14:10:54;11.52;;;8.60;;
21360;SDS011;10839;43.206;23.550;2023-03-23T14:21:16;13.90;;;8.90;;
21360;SDS011;10839;43.206;23.550;2023-03-23T14:23:47;12.25;;;8.48;;
21360;SDS011;10839;43.206;23.550;2023-03-23T14:26:17;14.88;;;9.52;;
21360;SDS011;10839;43.206;23.550;2023-03-23T14:28:49;13.10;;;9.57;;
21360;SDS011;10839;43.206;23.550;2023-03-23T14:33:51;18.20;;;10.85;;
21360;SDS011;10839;43.206;23.550;2023-03-23T14:36:22;12.23;;;8.75;;
21360;SDS011;10839;43.206;23.550;2023-03-23T14:38:59;14.95;;;9.10;;
21360;SDS011;10839;43.206;23.550;2023-03-23T14:41:44;14.80;;;9.93;;
21360;SDS011;10839;43.206;23.550;2023-03-23T14:44:12;12.60;;;8.70;;
21360;SDS011;10839;43.206;23.550;2023-03-23T14:46:43;16.45;;;9.88;;
21360;SDS011;10839;43.206;23.550;2023-03-23T14:49:11;12.70;;;9.30;;
21360;SDS011;10839;43.206;23.550;2023-03-23T14:51:49;14.38;;;9.75;;
21360;SDS011;10839;43.206;23.550;2023-03-23T14:54:21;14.85;;;9.48;;
21360;SDS011;10839;43.206;23.550;2023-03-23T14:56:48;12.35;;;9.30;;
21360;SDS011;10839;43.206;23.550;2023-03-23T14:59:15;16.15;;;8.70;;
21360;SDS011;10839;43.206;23.550;2023-03-23T15:01:41;13.48;;;10.05;;
21360;SDS011;10839;43.206;23.550;2023-03-23T15:04:11;13.75;;;9.07;;
21360;SDS011;10839;43.206;23.550;2023-03-23T15:06:42;13.55;;;8.80;;
21360;SDS011;10839;43.206;23.550;2023-03-23T15:09:15;12.35;;;9.73;;
21360;SDS011;10839;43.206;23.550;2023-03-23T15:11:50;13.90;;;9.15;;
21360;SDS011;10839;43.206;23.550;2023-03-23T15:14:22;13.52;;;9.23;;
21360;SDS011;10839;43.206;23.550;2023-03-23T15:16:53;12.57;;;8.85;;
21360;SDS011;10839;43.206;23.550;2023-03-23T15:19:42;14.15;;;9.50;;
21360;SDS011;10839;43.206;23.550;2023-03-23T15:22:20;12.20;;;9.13;;
21360;SDS011;10839;43.206;23.550;2023-03-23T15:25:10;12.77;;;9.07;;
21360;SDS011;10839;43.206;23.550;2023-03-23T15:27:42;13.30;;;9.30;;
21360;SDS011;10839;43.206;23.550;2023-03-23T15:32:42;17.30;;;10.98;;
21360;SDS011;10839;43.206;23.550;2023-03-23T15:35:56;17.27;;;10.48;;
21360;SDS011;10839;43.206;23.550;2023-03-23T15:38:02;16.73;;;10.45;;
21360;SDS011;10839;43.206;23.550;2023-03-23T15:40:40;15.13;;;10.82;;
21360;SDS011;10839;43.206;23.550;2023-03-23T15:49:04;19.63;;;10.60;;
21360;SDS011;10839;43.206;23.550;2023-03-23T15:51:35;14.32;;;9.80;;
21360;SDS011;10839;43.206;23.550;2023-03-23T15:54:02;18.98;;;11.02;;
21360;SDS011;10839;43.206;23.550;2023-03-23T15:56:28;18.90;;;11.43;;
21360;SDS011;10839;43.206;23.550;2023-03-23T15:58:57;16.58;;;10.95;;
21360;SDS011;10839;43.206;23.550;2023-03-23T16:01:28;20.27;;;11.00;;
21360;SDS011;10839;43.206;23.550;2023-03-23T16:03:59;16.55;;;11.77;;
21360;SDS011;10839;43.206;23.550;2023-03-23T16:06:30;14.82;;;10.48;;
21360;SDS011;10839;43.206;23.550;2023-03-23T16:08:58;23.80;;;12.57;;
21360;SDS011;10839;43.206;23.550;2023-03-23T16:11:25;24.42;;;14.10;;
21360;SDS011;10839;43.206;23.550;2023-03-23T16:13:52;23.63;;;13.65;;
21360;SDS011;10839;43.206;23.550;2023-03-23T16:16:22;31.48;;;15.93;;
21360;SDS011;10839;43.206;23.550;2023-03-23T16:18:53;36.80;;;20.30;;
21360;SDS011;10839;43.206;23.550;2023-03-23T16:21:19;22.45;;;11.80;;
21360;SDS011;10839;43.206;23.550;2023-03-23T16:23:46;27.92;;;16.20;;
21360;SDS011;10839;43.206;23.550;2023-03-23T16:26:13;23.70;;;15.10;;
21360;SDS011;10839;43.206;23.550;2023-03-23T16:28:40;38.58;;;19.90;;
21360;SDS011;10839;43.206;23.550;2023-03-23T16:31:06;20.25;;;13.60;;
21360;SDS011;10839;43.206;23.550;2023-03-23T16:33:32;17.95;;;12.48;;
21360;SDS011;10839;43.206;23.550;2023-03-23T16:35:58;17.83;;;10.93;;
21360;SDS011;10839;43.206;23.550;2023-03-23T16:38:24;23.48;;;14.25;;
21360;SDS011;10839;43.206;23.550;2023-03-23T16:40:50;38.35;;;22.45;;
21360;SDS011;10839;43.206;23.550;2023-03-23T16:43:16;40.20;;;24.40;;
21360;SDS011;10839;43.206;23.550;2023-03-23T16:45:43;44.75;;;25.95;;
21360;SDS011;10839;43.206;23.550;2023-03-23T16:48:11;42.92;;;23.90;;
21360;SDS011;10839;43.206;23.550;2023-03-23T16:50:38;51.92;;;26.38;;
21360;SDS011;10839;43.206;23.550;2023-03-23T16:53:05;37.88;;;21.95;;
21360;SDS011;10839;43.206;23.550;2023-03-23T16:55:33;42.58;;;24.95;;